createdAt,value
2022-12-12T00:01:14.804Z,4.00
2022-12-12T00:03:44.370Z,3.96
2022-12-12T00:06:12.341Z,3.96
2022-12-12T00:08:40.538Z,3.83
2022-12-12T00:11:08.971Z,3.79
2022-12-12T00:13:37.149Z,3.77
2022-12-12T00:16:06.104Z,3.88
2022-12-12T00:18:34.378Z,3.85
2022-12-12T00:21:06.572Z,3.81
2022-12-12T00:23:35.279Z,3.68
2022-12-12T00:26:06.353Z,3.69
2022-12-12T00:28:35.027Z,3.59
2022-12-12T00:31:03.216Z,3.68
2022-12-12T00:33:31.225Z,3.66
2022-12-12T00:35:59.219Z,3.64
2022-12-12T00:38:28.559Z,3.64
2022-12-12T00:40:57.482Z,3.57
2022-12-12T00:43:25.519Z,3.54
2022-12-12T00:45:53.575Z,3.48
2022-12-12T00:48:22.059Z,3.48
2022-12-12T00:50:50.036Z,3.42
2022-12-12T00:53:19.228Z,3.39
2022-12-12T00:55:56.593Z,3.33
2022-12-12T00:58:24.838Z,3.24
2022-12-12T01:00:53.759Z,3.26
2022-12-12T01:03:22.677Z,3.35
2022-12-12T01:05:50.688Z,3.26
2022-12-12T01:08:18.684Z,3.25
2022-12-12T01:10:47.990Z,3.18
2022-12-12T01:13:15.899Z,3.14
2022-12-12T01:15:43.849Z,3.28
2022-12-12T01:18:11.806Z,3.35
2022-12-12T01:20:39.741Z,3.19
2022-12-12T01:23:07.685Z,3.17
2022-12-12T01:25:35.694Z,3.19
2022-12-12T01:28:05.882Z,3.17
2022-12-12T01:30:34.043Z,3.25
2022-12-12T01:33:01.981Z,3.09
2022-12-12T01:35:30.580Z,3.06
2022-12-12T01:37:58.484Z,3.22
2022-12-12T01:40:29.687Z,3.11
2022-12-12T01:42:57.610Z,3.14
2022-12-12T01:46:11.361Z,3.05
2022-12-12T01:48:45.719Z,2.92
2022-12-12T01:51:15.436Z,3.07
2022-12-12T01:53:44.417Z,3.00
2022-12-12T01:56:16.064Z,2.87
2022-12-12T01:58:48.597Z,2.94
2022-12-12T02:01:17.232Z,2.89
2022-12-12T02:03:48.629Z,2.91
2022-12-12T02:06:19.643Z,2.83
2022-12-12T02:08:48.835Z,2.80
2022-12-12T02:11:16.835Z,2.87
2022-12-12T02:13:44.878Z,2.72
2022-12-12T02:16:21.925Z,2.88
2022-12-12T02:18:58.727Z,2.77
2022-12-12T02:21:34.505Z,2.81
2022-12-12T02:24:35.747Z,2.79
2022-12-12T02:27:42.169Z,2.69
2022-12-12T02:30:30.039Z,2.73
2022-12-12T02:33:15.585Z,2.70
2022-12-12T02:35:55.169Z,2.83
2022-12-12T02:38:29.264Z,2.81
2022-12-12T02:41:05.427Z,2.83
2022-12-12T02:43:40.332Z,2.87
2022-12-12T02:46:14.490Z,2.86
2022-12-12T02:48:49.854Z,2.81
2022-12-12T02:51:20.876Z,2.80
2022-12-12T02:53:48.787Z,2.93
2022-12-12T02:56:48.859Z,3.02
2022-12-12T02:59:22.644Z,2.97
2022-12-12T03:02:30.596Z,3.00
2022-12-12T03:05:34.979Z,3.03
2022-12-12T03:08:13.282Z,2.99
2022-12-12T03:10:53.469Z,3.10
2022-12-12T03:13:32.797Z,3.02
2022-12-12T03:16:14.052Z,2.99
2022-12-12T03:18:49.130Z,2.91
2022-12-12T03:21:23.836Z,2.86
2022-12-12T03:23:55.929Z,2.77
2022-12-12T03:26:31.446Z,2.87
2022-12-12T03:29:06.801Z,2.84
2022-12-12T03:31:39.598Z,2.79
2022-12-12T03:34:12.914Z,2.78
2022-12-12T03:36:47.533Z,2.70
2022-12-12T03:39:22.145Z,2.81
2022-12-12T03:42:06.986Z,2.78
2022-12-12T03:44:42.207Z,2.87
2022-12-12T03:47:14.956Z,2.92
2022-12-12T03:49:48.844Z,2.74
2022-12-12T03:52:25.399Z,2.78
2022-12-12T03:54:59.906Z,2.81
2022-12-12T03:57:31.829Z,2.83
2022-12-12T04:00:05.849Z,2.59
2022-12-12T04:02:40.230Z,2.87
2022-12-12T04:05:16.244Z,2.84
2022-12-12T04:07:50.792Z,2.58
2022-12-12T04:10:36.547Z,2.60
2022-12-12T04:13:13.670Z,2.34
2022-12-12T04:15:57.931Z,2.42
2022-12-12T04:18:37.614Z,2.56
2022-12-12T04:21:35.806Z,2.53
2022-12-12T04:24:16.500Z,2.59
2022-12-12T04:26:49.104Z,2.71
2022-12-12T04:29:29.504Z,2.71
2022-12-12T04:32:04.752Z,2.69
2022-12-12T04:34:50.009Z,2.79
2022-12-12T04:37:22.605Z,2.80
2022-12-12T04:39:56.136Z,2.91
2022-12-12T04:42:27.792Z,2.95
2022-12-12T04:45:00.416Z,3.06
2022-12-12T04:47:31.957Z,3.14
2022-12-12T04:50:01.619Z,3.26
2022-12-12T04:52:34.647Z,3.35
2022-12-12T04:55:08.251Z,3.38
2022-12-12T04:57:40.812Z,3.22
2022-12-12T05:00:10.697Z,3.34
2022-12-12T05:02:45.451Z,3.49
2022-12-12T05:05:18.779Z,3.24
2022-12-12T05:07:53.662Z,3.50
2022-12-12T05:10:23.468Z,3.36
2022-12-12T05:12:53.642Z,3.27
2022-12-12T05:15:21.992Z,3.15
2022-12-12T05:17:54.716Z,3.22
2022-12-12T05:20:22.808Z,3.41
2022-12-12T05:22:50.746Z,3.25
2022-12-12T05:25:18.805Z,3.26
2022-12-12T05:27:48.197Z,3.31
2022-12-12T05:30:16.156Z,3.17
2022-12-12T05:32:45.968Z,2.96
2022-12-12T05:35:14.250Z,3.17
2022-12-12T05:37:44.418Z,3.20
2022-12-12T05:40:16.172Z,2.91
2022-12-12T05:42:44.340Z,2.77
2022-12-12T05:45:14.201Z,2.54
2022-12-12T05:47:42.287Z,2.53
2022-12-12T05:50:11.091Z,2.58
2022-12-12T05:52:39.148Z,2.49
2022-12-12T05:55:07.888Z,2.41
2022-12-12T05:57:35.886Z,2.45
2022-12-12T06:00:05.008Z,2.54
2022-12-12T06:02:34.594Z,2.54
2022-12-12T06:05:02.584Z,2.67
2022-12-12T06:07:30.496Z,2.70
2022-12-12T06:09:58.425Z,2.78
2022-12-12T06:12:26.439Z,2.84
2022-12-12T06:14:54.581Z,2.76
2022-12-12T06:17:22.505Z,2.62
2022-12-12T06:19:51.952Z,2.70
2022-12-12T06:22:20.246Z,2.75
2022-12-12T06:24:48.187Z,2.67
2022-12-12T06:27:16.229Z,2.70
2022-12-12T06:29:44.471Z,2.70
2022-12-12T06:32:12.499Z,2.72
2022-12-12T06:34:40.831Z,2.75
2022-12-12T06:37:15.679Z,2.87
2022-12-12T06:39:45.439Z,2.98
2022-12-12T06:42:13.396Z,3.04
2022-12-12T06:44:41.328Z,3.10
2022-12-12T06:47:09.245Z,3.17
2022-12-12T06:49:37.246Z,2.97
2022-12-12T06:52:05.372Z,3.25
2022-12-12T06:54:34.675Z,3.27
2022-12-12T06:57:02.580Z,3.31
2022-12-12T06:59:30.532Z,3.44
2022-12-12T07:01:58.924Z,3.50
2022-12-12T07:04:26.994Z,3.66
2022-12-12T07:06:54.888Z,3.94
2022-12-12T07:09:22.955Z,4.06
2022-12-12T07:11:52.260Z,4.06
2022-12-12T07:14:20.235Z,4.00
2022-12-12T07:16:48.360Z,4.03
2022-12-12T07:19:17.165Z,4.20
2022-12-12T07:21:45.237Z,4.32
2022-12-12T07:24:15.677Z,4.67
2022-12-12T07:26:43.669Z,4.68
2022-12-12T07:29:13.076Z,4.76
2022-12-12T07:31:41.000Z,4.73
2022-12-12T07:34:08.943Z,4.78
2022-12-12T07:36:38.023Z,4.81
2022-12-12T07:39:06.024Z,4.82
2022-12-12T07:41:33.964Z,4.73
2022-12-12T07:44:01.898Z,4.75
2022-12-12T07:46:31.323Z,4.89
2022-12-12T07:48:59.558Z,4.89
2022-12-12T07:51:27.777Z,4.96
2022-12-12T07:53:55.710Z,5.11
2022-12-12T07:56:23.629Z,5.08
2022-12-12T07:58:53.453Z,5.14
2022-12-12T08:01:23.937Z,5.12
2022-12-12T08:03:54.071Z,5.14
2022-12-12T08:06:24.221Z,5.08
2022-12-12T08:08:53.511Z,5.01
2022-12-12T08:11:23.214Z,4.99
2022-12-12T08:13:52.495Z,5.11
2022-12-12T08:16:24.840Z,5.09
2022-12-12T08:18:56.211Z,5.15
2022-12-12T08:21:26.061Z,5.17
2022-12-12T08:23:57.255Z,5.26
2022-12-12T08:26:26.019Z,5.28
2022-12-12T08:28:54.257Z,5.25
2022-12-12T08:31:23.126Z,5.42
2022-12-12T08:33:53.184Z,5.40
2022-12-12T08:36:25.031Z,5.34
2022-12-12T08:38:53.716Z,5.36
2022-12-12T08:41:21.814Z,5.03
2022-12-12T08:43:50.723Z,5.20
2022-12-12T08:46:20.878Z,5.21
2022-12-12T08:48:49.559Z,5.24
2022-12-12T08:51:19.036Z,5.13
2022-12-12T08:53:49.883Z,4.94
2022-12-12T08:56:19.102Z,4.79
2022-12-12T08:58:47.697Z,5.05
2022-12-12T09:01:17.596Z,5.12
2022-12-12T09:03:46.054Z,5.34
2022-12-12T09:06:14.313Z,5.55
2022-12-12T09:08:43.239Z,5.63
2022-12-12T09:11:12.952Z,5.87
2022-12-12T09:13:41.701Z,6.04
2022-12-12T09:16:10.444Z,6.17
2022-12-12T09:18:44.721Z,6.33
2022-12-12T09:21:15.937Z,6.33
2022-12-12T09:23:43.858Z,6.49
2022-12-12T09:26:13.267Z,6.49
2022-12-12T09:28:41.478Z,6.43
2022-12-12T09:31:11.639Z,6.43
2022-12-12T09:33:40.308Z,6.59
2022-12-12T09:36:09.796Z,6.68
2022-12-12T09:38:37.907Z,6.70
2022-12-12T09:41:15.441Z,6.87
2022-12-12T09:43:51.585Z,6.80
2022-12-12T09:46:29.262Z,6.80
2022-12-12T09:49:07.027Z,6.80
2022-12-12T09:51:36.664Z,6.64
2022-12-12T09:54:04.942Z,6.67
2022-12-12T09:56:41.617Z,6.93
2022-12-12T09:59:16.117Z,7.13
2022-12-12T10:01:54.007Z,7.04
2022-12-12T10:04:29.649Z,7.12
2022-12-12T10:07:02.607Z,7.21
2022-12-12T10:09:47.436Z,7.27
2022-12-12T10:12:20.365Z,7.31
2022-12-12T10:14:51.768Z,7.34
2022-12-12T10:17:25.737Z,7.37
2022-12-12T10:19:56.997Z,7.28
2022-12-12T10:22:33.779Z,7.29
2022-12-12T10:25:17.041Z,7.42
2022-12-12T10:27:46.412Z,7.45
2022-12-12T10:30:19.431Z,7.54
2022-12-12T10:33:03.761Z,7.43
2022-12-12T10:35:40.914Z,7.56
2022-12-12T10:38:23.379Z,7.59
2022-12-12T10:40:59.860Z,7.64
2022-12-12T10:43:35.726Z,7.62
2022-12-12T10:46:16.487Z,7.69
2022-12-12T10:48:45.785Z,7.61
2022-12-12T10:51:17.705Z,7.67
2022-12-12T10:53:45.989Z,7.52
2022-12-12T10:56:21.328Z,7.47
2022-12-12T10:58:57.018Z,7.37
2022-12-12T11:02:00.481Z,7.57
2022-12-12T11:04:17.563Z,7.58
2022-12-12T11:06:48.979Z,7.55
2022-12-12T11:09:22.787Z,7.64
2022-12-12T11:12:02.031Z,7.49
2022-12-12T11:14:34.878Z,7.63
2022-12-12T11:17:03.175Z,7.61
2022-12-12T11:19:39.475Z,7.52
2022-12-12T11:22:07.757Z,7.31
2022-12-12T11:24:45.395Z,7.21
2022-12-12T11:27:22.232Z,7.31
2022-12-12T11:29:54.597Z,7.25
2022-12-12T11:32:25.528Z,7.15
2022-12-12T11:34:56.934Z,7.22
2022-12-12T11:37:28.276Z,7.28
2022-12-12T11:39:58.246Z,7.33
2022-12-12T11:42:29.514Z,7.07
2022-12-12T11:45:05.467Z,7.09
2022-12-12T11:47:41.015Z,6.93
2022-12-12T11:50:22.282Z,6.76
2022-12-12T11:52:52.401Z,7.02
2022-12-12T11:55:28.750Z,6.98
2022-12-12T11:58:16.009Z,6.90
2022-12-12T12:00:55.891Z,7.01
2022-12-12T12:03:28.268Z,6.95
2022-12-12T12:06:14.241Z,7.02
2022-12-12T12:08:57.245Z,7.02
2022-12-12T12:11:32.506Z,6.99
2022-12-12T12:14:16.831Z,6.90
2022-12-12T12:16:57.702Z,6.75
2022-12-12T12:19:37.295Z,6.85
2022-12-12T12:22:17.448Z,6.89
2022-12-12T12:24:57.980Z,6.81
2022-12-12T12:27:33.760Z,6.75
2022-12-12T12:30:14.681Z,6.71
2022-12-12T12:32:56.564Z,6.83
2022-12-12T12:35:31.013Z,6.85
2022-12-12T12:38:17.320Z,6.85
2022-12-12T12:41:00.647Z,6.84
2022-12-12T12:43:51.975Z,6.87
2022-12-12T12:46:26.572Z,6.73
2022-12-12T12:49:00.196Z,6.77
2022-12-12T12:51:34.434Z,6.63
2022-12-12T12:54:03.807Z,6.69
2022-12-12T12:56:34.038Z,6.71
2022-12-12T12:59:06.230Z,6.78
2022-12-12T13:01:37.890Z,6.55
2022-12-12T13:04:16.285Z,6.43
2022-12-12T13:06:50.182Z,6.40
2022-12-12T13:09:28.398Z,6.16
2022-12-12T13:12:02.419Z,6.08
2022-12-12T13:14:39.216Z,6.16
2022-12-12T13:17:13.447Z,6.20
2022-12-12T13:19:44.179Z,6.01
2022-12-12T13:22:16.683Z,6.22
2022-12-12T13:24:59.457Z,6.33
2022-12-12T13:27:33.929Z,6.18
2022-12-12T13:30:05.064Z,6.26
2022-12-12T13:32:59.502Z,6.31
2022-12-12T13:35:32.353Z,6.23
2022-12-12T13:38:01.293Z,6.15
2022-12-12T13:40:31.495Z,6.05
2022-12-12T13:43:07.449Z,6.05
2022-12-12T13:45:44.237Z,6.04
2022-12-12T13:48:44.505Z,6.17
2022-12-12T13:51:37.172Z,6.17
2022-12-12T13:54:54.792Z,6.28
2022-12-12T13:57:33.546Z,6.25
2022-12-12T14:00:20.402Z,6.32
2022-12-12T14:03:20.930Z,6.21
2022-12-12T14:05:50.740Z,6.15
2022-12-12T14:08:27.885Z,6.12
2022-12-12T14:11:00.324Z,5.85
2022-12-12T14:13:43.008Z,5.94
2022-12-12T14:16:23.269Z,5.84
2022-12-12T14:19:24.736Z,5.96
2022-12-12T14:21:52.719Z,6.03
2022-12-12T14:25:03.046Z,5.97
2022-12-12T14:28:04.670Z,5.85
2022-12-12T14:30:51.927Z,5.98
2022-12-12T14:34:01.632Z,5.79
2022-12-12T14:37:14.331Z,5.69
2022-12-12T14:39:52.471Z,5.37
2022-12-12T14:43:19.174Z,5.44
2022-12-12T14:45:36.294Z,5.82
2022-12-12T14:48:18.478Z,5.86
2022-12-12T14:50:50.692Z,5.68
2022-12-12T14:53:21.895Z,5.68
2022-12-12T14:55:53.486Z,5.83
2022-12-12T14:58:23.701Z,5.77
2022-12-12T15:00:55.800Z,5.75
2022-12-12T15:03:27.073Z,5.70
2022-12-12T15:06:27.877Z,5.69
2022-12-12T15:08:57.247Z,5.35
2022-12-12T15:11:27.609Z,5.55
2022-12-12T15:13:57.131Z,5.44
2022-12-12T15:16:33.472Z,5.43
2022-12-12T15:19:03.421Z,5.57
2022-12-12T15:21:32.981Z,5.64
2022-12-12T15:24:01.295Z,5.74
2022-12-12T15:26:30.218Z,5.80
2022-12-12T15:28:58.956Z,5.77
2022-12-12T15:31:28.523Z,5.69
2022-12-12T15:33:56.518Z,5.58
2022-12-12T15:36:28.092Z,5.44
2022-12-12T15:39:13.179Z,5.33
2022-12-12T15:41:41.555Z,5.39
2022-12-12T15:44:17.175Z,5.32
2022-12-12T15:46:48.684Z,5.38
2022-12-12T15:49:39.559Z,5.39
2022-12-12T15:52:20.774Z,5.44
2022-12-12T15:54:51.135Z,5.49
2022-12-12T15:57:21.426Z,5.60
2022-12-12T15:59:57.125Z,5.51
2022-12-12T16:02:32.041Z,5.43
2022-12-12T16:05:06.869Z,5.26
2022-12-12T16:07:37.872Z,5.37
2022-12-12T16:10:25.913Z,5.34
2022-12-12T16:13:22.192Z,5.11
2022-12-12T16:15:50.385Z,5.17
2022-12-12T16:18:23.766Z,5.31
2022-12-12T16:20:54.009Z,5.36
2022-12-12T16:23:27.956Z,5.43
2022-12-12T16:25:56.810Z,5.36
2022-12-12T16:28:26.137Z,5.16
2022-12-12T16:30:59.480Z,5.37
2022-12-12T16:33:31.953Z,5.34
2022-12-12T16:36:03.252Z,5.25
2022-12-12T16:38:33.261Z,5.28
2022-12-12T16:41:02.672Z,5.29
2022-12-12T16:43:31.271Z,5.18
2022-12-12T16:45:59.655Z,5.06
2022-12-12T16:48:36.416Z,5.26
2022-12-12T16:51:06.976Z,5.23
2022-12-12T16:53:36.207Z,5.25
2022-12-12T16:56:05.178Z,5.14
2022-12-12T16:58:33.210Z,5.23
2022-12-12T17:01:01.872Z,5.20
2022-12-12T17:03:32.905Z,5.23
2022-12-12T17:06:01.449Z,5.23
2022-12-12T17:08:29.444Z,4.95
2022-12-12T17:11:09.916Z,5.06
2022-12-12T17:13:40.520Z,4.81
2022-12-12T17:16:08.842Z,4.95
2022-12-12T17:18:38.188Z,4.91
2022-12-12T17:21:06.597Z,5.00
2022-12-12T17:23:34.612Z,5.03
2022-12-12T17:26:04.769Z,5.00
2022-12-12T17:28:34.629Z,5.07
2022-12-12T17:31:03.454Z,5.00
2022-12-12T17:33:31.521Z,5.02
2022-12-12T17:36:03.051Z,4.98
2022-12-12T17:38:31.356Z,4.84
2022-12-12T17:40:59.921Z,4.86
2022-12-12T17:43:27.820Z,4.98
2022-12-12T17:46:00.223Z,4.95
2022-12-12T17:48:32.517Z,4.86
2022-12-12T17:51:03.800Z,4.80
2022-12-12T17:53:36.739Z,5.00
2022-12-12T17:56:08.103Z,4.92
2022-12-12T17:58:37.682Z,4.87
2022-12-12T18:01:17.188Z,4.76
2022-12-12T18:03:45.667Z,4.60
2022-12-12T18:06:15.915Z,4.66
2022-12-12T18:08:44.749Z,4.83
2022-12-12T18:11:14.586Z,4.97
2022-12-12T18:13:43.704Z,5.01
2022-12-12T18:16:13.444Z,5.08
2022-12-12T18:18:42.064Z,5.03
2022-12-12T18:21:15.750Z,4.95
2022-12-12T18:23:48.727Z,4.95
2022-12-12T18:26:22.026Z,4.97
2022-12-12T18:28:52.041Z,4.70
2022-12-12T18:31:20.434Z,4.71
2022-12-12T18:33:48.447Z,4.67
2022-12-12T18:36:18.823Z,4.58
2022-12-12T18:38:48.528Z,4.61
2022-12-12T18:41:17.257Z,4.64
2022-12-12T18:43:45.621Z,4.55
2022-12-12T18:46:15.509Z,4.36
2022-12-12T18:48:45.186Z,4.37
2022-12-12T18:51:15.439Z,4.50
2022-12-12T18:53:44.020Z,4.35
2022-12-12T18:56:16.463Z,4.42
2022-12-12T18:58:45.187Z,4.39
2022-12-12T19:01:15.436Z,4.37
2022-12-12T19:03:44.695Z,4.54
2022-12-12T19:06:14.956Z,4.56
2022-12-12T19:08:43.558Z,4.52
2022-12-12T19:11:14.217Z,4.28
2022-12-12T19:13:43.059Z,4.44
2022-12-12T19:16:12.772Z,4.45
2022-12-12T19:18:41.323Z,4.36
2022-12-12T19:21:11.141Z,4.43
2022-12-12T19:23:40.005Z,4.32
2022-12-12T19:26:09.241Z,4.16
2022-12-12T19:28:39.029Z,4.32
2022-12-12T19:31:08.636Z,4.38
2022-12-12T19:33:36.886Z,4.30
2022-12-12T19:36:10.629Z,4.33
2022-12-12T19:38:38.636Z,4.30
2022-12-12T19:41:07.447Z,4.29
2022-12-12T19:43:35.715Z,4.12
2022-12-12T19:46:08.283Z,4.04
2022-12-12T19:48:37.101Z,4.12
2022-12-12T19:51:07.406Z,4.03
2022-12-12T19:53:38.579Z,4.02
2022-12-12T19:56:07.679Z,3.81
2022-12-12T19:58:38.716Z,3.93
2022-12-12T20:01:10.678Z,3.75
2022-12-12T20:03:39.190Z,3.46
2022-12-12T20:06:10.130Z,3.74
2022-12-12T20:08:39.004Z,3.78
2022-12-12T20:11:08.628Z,3.77
2022-12-12T20:13:37.317Z,3.82
2022-12-12T20:16:06.697Z,3.59
2022-12-12T20:18:36.530Z,3.71
2022-12-12T20:21:05.201Z,3.70
2022-12-12T20:23:35.035Z,3.70
2022-12-12T20:26:04.331Z,3.70
2022-12-12T20:28:32.709Z,3.67
2022-12-12T20:31:05.843Z,3.77
2022-12-12T20:33:35.833Z,3.67
2022-12-12T20:36:04.408Z,3.74
2022-12-12T20:38:32.635Z,3.67
2022-12-12T20:41:01.257Z,3.63
2022-12-12T20:43:30.260Z,3.54
2022-12-12T20:45:58.680Z,3.49
2022-12-12T20:48:26.596Z,3.44
2022-12-12T20:50:59.221Z,3.37
2022-12-12T20:53:29.069Z,3.33
2022-12-12T20:56:09.237Z,3.23
2022-12-12T20:58:39.624Z,3.19
2022-12-12T21:01:11.867Z,3.28
2022-12-12T21:03:40.433Z,3.24
2022-12-12T21:06:14.854Z,3.21
2022-12-12T21:08:43.350Z,3.20
2022-12-12T21:11:11.343Z,3.22
2022-12-12T21:13:39.297Z,3.17
2022-12-12T21:16:11.037Z,3.17
2022-12-12T21:18:39.020Z,3.11
2022-12-12T21:21:10.512Z,3.15
2022-12-12T21:23:40.123Z,3.07
2022-12-12T21:26:16.730Z,3.06
2022-12-12T21:28:46.601Z,3.06
2022-12-12T21:31:18.574Z,2.96
2022-12-12T21:33:47.082Z,2.77
2022-12-12T21:36:17.272Z,2.84
2022-12-12T21:38:46.703Z,2.75
2022-12-12T21:41:16.294Z,2.86
2022-12-12T21:43:46.019Z,2.78
2022-12-12T21:46:16.733Z,2.84
2022-12-12T21:48:44.742Z,2.84
2022-12-12T21:51:15.463Z,2.82
2022-12-12T21:53:43.893Z,2.68
2022-12-12T21:56:15.884Z,2.60
2022-12-12T21:58:45.166Z,2.46
2022-12-12T22:01:14.708Z,2.50
2022-12-12T22:03:43.178Z,2.51
2022-12-12T22:06:13.214Z,2.51
2022-12-12T22:08:41.724Z,2.49
2022-12-12T22:11:10.221Z,2.54
2022-12-12T22:13:40.475Z,2.56
2022-12-12T22:16:12.854Z,2.47
2022-12-12T22:18:41.393Z,2.34
2022-12-12T22:21:11.233Z,2.41
2022-12-12T22:23:40.512Z,2.44
2022-12-12T22:26:14.855Z,2.39
2022-12-12T22:28:43.965Z,2.24
2022-12-12T22:31:12.452Z,2.10
2022-12-12T22:33:40.748Z,2.01
2022-12-12T22:36:10.552Z,1.97
2022-12-12T22:38:38.946Z,2.08
2022-12-12T22:41:08.390Z,1.91
2022-12-12T22:43:37.178Z,1.78
2022-12-12T22:46:07.957Z,1.66
2022-12-12T22:48:36.440Z,1.67
2022-12-12T22:51:13.708Z,1.61
2022-12-12T22:53:44.429Z,1.64
2022-12-12T22:56:13.388Z,1.61
2022-12-12T22:58:41.721Z,1.69
2022-12-12T23:01:13.197Z,1.66
2022-12-12T23:03:41.436Z,1.57
2022-12-12T23:06:12.390Z,1.52
2022-12-12T23:08:40.352Z,1.59
2022-12-12T23:11:10.737Z,1.66
2022-12-12T23:13:39.329Z,1.64
2022-12-12T23:16:08.671Z,1.39
2022-12-12T23:18:40.032Z,1.57
2022-12-12T23:21:16.321Z,1.47
2022-12-12T23:23:44.916Z,1.45
2022-12-12T23:26:14.684Z,1.53
2022-12-12T23:28:43.844Z,1.49
2022-12-12T23:31:13.825Z,1.52
2022-12-12T23:33:43.501Z,1.42
2022-12-12T23:36:15.759Z,1.27
2022-12-12T23:38:44.060Z,1.38
2022-12-12T23:41:14.812Z,1.41
2022-12-12T23:43:43.362Z,1.42
2022-12-12T23:46:28.417Z,1.38
2022-12-12T23:48:59.767Z,1.41
2022-12-12T23:51:29.521Z,1.37
2022-12-12T23:53:58.317Z,1.52
2022-12-12T23:56:26.766Z,1.40
2022-12-12T23:58:55.364Z,1.46
